sensor_id;sensor_type;location;lat;lon;timestamp;P1;durP1;ratioP1;P2;durP2;ratioP2
17193;SDS011;8713;48.388;10.928;2024-01-10T00:01:09;15.75;;;8.35;;
17193;SDS011;8713;48.388;10.928;2024-01-10T00:02:39;14.35;;;8.02;;
17193;SDS011;8713;48.388;10.928;2024-01-10T00:04:09;14.20;;;8.15;;
17193;SDS011;8713;48.388;10.928;2024-01-10T00:05:39;16.38;;;8.52;;
17193;SDS011;8713;48.388;10.928;2024-01-10T00:07:08;17.88;;;8.75;;
17193;SDS011;8713;48.388;10.928;2024-01-10T00:08:38;19.25;;;9.15;;
17193;SDS011;8713;48.388;10.928;2024-01-10T00:10:07;16.45;;;7.72;;
17193;SDS011;8713;48.388;10.928;2024-01-10T00:11:37;14.00;;;8.05;;
17193;SDS011;8713;48.388;10.928;2024-01-10T00:13:07;15.00;;;7.65;;
17193;SDS011;8713;48.388;10.928;2024-01-10T00:14:36;13.93;;;7.45;;
17193;SDS011;8713;48.388;10.928;2024-01-10T00:16:06;12.55;;;6.68;;
17193;SDS011;8713;48.388;10.928;2024-01-10T00:17:36;14.05;;;7.13;;
17193;SDS011;8713;48.388;10.928;2024-01-10T00:19:05;12.07;;;7.03;;
17193;SDS011;8713;48.388;10.928;2024-01-10T00:20:35;13.35;;;7.07;;
17193;SDS011;8713;48.388;10.928;2024-01-10T00:22:05;15.43;;;7.57;;
17193;SDS011;8713;48.388;10.928;2024-01-10T00:23:34;12.23;;;7.20;;
17193;SDS011;8713;48.388;10.928;2024-01-10T00:25:03;13.35;;;7.28;;
17193;SDS011;8713;48.388;10.928;2024-01-10T00:26:33;14.80;;;8.35;;
17193;SDS011;8713;48.388;10.928;2024-01-10T00:28:03;18.00;;;10.25;;
17193;SDS011;8713;48.388;10.928;2024-01-10T00:29:33;15.85;;;8.52;;
17193;SDS011;8713;48.388;10.928;2024-01-10T00:31:03;18.00;;;8.88;;
17193;SDS011;8713;48.388;10.928;2024-01-10T00:32:33;15.38;;;8.20;;
17193;SDS011;8713;48.388;10.928;2024-01-10T00:34:03;16.60;;;8.38;;
17193;SDS011;8713;48.388;10.928;2024-01-10T00:35:33;17.15;;;7.85;;
17193;SDS011;8713;48.388;10.928;2024-01-10T00:37:02;16.92;;;8.93;;
17193;SDS011;8713;48.388;10.928;2024-01-10T00:38:32;15.15;;;8.23;;
17193;SDS011;8713;48.388;10.928;2024-01-10T00:40:02;17.85;;;8.63;;
17193;SDS011;8713;48.388;10.928;2024-01-10T00:41:32;18.90;;;8.35;;
17193;SDS011;8713;48.388;10.928;2024-01-10T00:43:02;14.45;;;7.72;;
17193;SDS011;8713;48.388;10.928;2024-01-10T00:44:32;14.25;;;7.65;;
17193;SDS011;8713;48.388;10.928;2024-01-10T00:46:01;15.43;;;8.10;;
17193;SDS011;8713;48.388;10.928;2024-01-10T00:47:32;15.68;;;8.57;;
17193;SDS011;8713;48.388;10.928;2024-01-10T00:49:01;16.00;;;8.10;;
17193;SDS011;8713;48.388;10.928;2024-01-10T00:50:31;18.15;;;9.00;;
17193;SDS011;8713;48.388;10.928;2024-01-10T00:52:01;16.10;;;8.02;;
17193;SDS011;8713;48.388;10.928;2024-01-10T00:53:30;16.13;;;7.63;;
17193;SDS011;8713;48.388;10.928;2024-01-10T00:55:00;18.63;;;7.82;;
17193;SDS011;8713;48.388;10.928;2024-01-10T00:56:30;14.55;;;7.63;;
17193;SDS011;8713;48.388;10.928;2024-01-10T00:57:59;15.38;;;7.80;;
17193;SDS011;8713;48.388;10.928;2024-01-10T00:59:29;14.48;;;8.27;;
17193;SDS011;8713;48.388;10.928;2024-01-10T01:00:58;19.40;;;8.82;;
17193;SDS011;8713;48.388;10.928;2024-01-10T01:02:28;17.92;;;8.27;;
17193;SDS011;8713;48.388;10.928;2024-01-10T01:03:57;18.45;;;9.57;;
17193;SDS011;8713;48.388;10.928;2024-01-10T01:05:27;20.92;;;10.73;;
17193;SDS011;8713;48.388;10.928;2024-01-10T01:06:57;19.80;;;10.70;;
17193;SDS011;8713;48.388;10.928;2024-01-10T01:08:27;20.05;;;10.82;;
17193;SDS011;8713;48.388;10.928;2024-01-10T01:09:57;22.17;;;11.32;;
17193;SDS011;8713;48.388;10.928;2024-01-10T01:11:26;25.60;;;12.43;;
17193;SDS011;8713;48.388;10.928;2024-01-10T01:12:56;23.08;;;11.82;;
17193;SDS011;8713;48.388;10.928;2024-01-10T01:14:25;26.05;;;12.40;;
17193;SDS011;8713;48.388;10.928;2024-01-10T01:15:55;25.75;;;12.55;;
17193;SDS011;8713;48.388;10.928;2024-01-10T01:17:24;22.40;;;10.97;;
17193;SDS011;8713;48.388;10.928;2024-01-10T01:18:54;21.95;;;11.23;;
17193;SDS011;8713;48.388;10.928;2024-01-10T01:20:23;19.10;;;9.65;;
17193;SDS011;8713;48.388;10.928;2024-01-10T01:21:53;24.08;;;12.55;;
17193;SDS011;8713;48.388;10.928;2024-01-10T01:23:22;22.85;;;10.75;;
17193;SDS011;8713;48.388;10.928;2024-01-10T01:24:52;22.85;;;11.55;;
17193;SDS011;8713;48.388;10.928;2024-01-10T01:26:21;21.92;;;10.73;;
17193;SDS011;8713;48.388;10.928;2024-01-10T01:27:51;19.92;;;9.80;;
17193;SDS011;8713;48.388;10.928;2024-01-10T01:29:21;22.90;;;10.90;;
17193;SDS011;8713;48.388;10.928;2024-01-10T01:30:50;20.52;;;9.80;;
17193;SDS011;8713;48.388;10.928;2024-01-10T01:32:20;21.85;;;10.32;;
17193;SDS011;8713;48.388;10.928;2024-01-10T01:33:49;21.02;;;10.68;;
17193;SDS011;8713;48.388;10.928;2024-01-10T01:35:18;23.27;;;11.48;;
17193;SDS011;8713;48.388;10.928;2024-01-10T01:36:51;21.63;;;11.05;;
17193;SDS011;8713;48.388;10.928;2024-01-10T01:38:21;21.67;;;11.10;;
17193;SDS011;8713;48.388;10.928;2024-01-10T01:39:51;21.50;;;10.48;;
17193;SDS011;8713;48.388;10.928;2024-01-10T01:41:20;20.38;;;10.40;;
17193;SDS011;8713;48.388;10.928;2024-01-10T01:42:50;21.30;;;10.20;;
17193;SDS011;8713;48.388;10.928;2024-01-10T01:44:20;17.90;;;8.75;;
17193;SDS011;8713;48.388;10.928;2024-01-10T01:45:50;18.52;;;9.73;;
17193;SDS011;8713;48.388;10.928;2024-01-10T01:47:22;18.83;;;8.82;;
17193;SDS011;8713;48.388;10.928;2024-01-10T01:48:52;19.27;;;9.85;;
17193;SDS011;8713;48.388;10.928;2024-01-10T01:50:21;17.63;;;9.20;;
17193;SDS011;8713;48.388;10.928;2024-01-10T01:51:52;17.40;;;9.27;;
17193;SDS011;8713;48.388;10.928;2024-01-10T01:53:22;18.10;;;9.20;;
17193;SDS011;8713;48.388;10.928;2024-01-10T01:54:52;17.63;;;9.57;;
17193;SDS011;8713;48.388;10.928;2024-01-10T01:56:21;17.25;;;9.32;;
17193;SDS011;8713;48.388;10.928;2024-01-10T01:57:51;19.02;;;9.73;;
17193;SDS011;8713;48.388;10.928;2024-01-10T01:59:21;20.38;;;10.35;;
17193;SDS011;8713;48.388;10.928;2024-01-10T02:00:51;18.92;;;9.45;;
17193;SDS011;8713;48.388;10.928;2024-01-10T02:02:20;19.33;;;9.55;;
17193;SDS011;8713;48.388;10.928;2024-01-10T02:03:51;20.20;;;10.27;;
17193;SDS011;8713;48.388;10.928;2024-01-10T02:05:20;19.35;;;10.63;;
17193;SDS011;8713;48.388;10.928;2024-01-10T02:06:50;21.77;;;11.48;;
17193;SDS011;8713;48.388;10.928;2024-01-10T02:08:20;18.60;;;9.43;;
17193;SDS011;8713;48.388;10.928;2024-01-10T02:09:49;16.38;;;9.40;;
17193;SDS011;8713;48.388;10.928;2024-01-10T02:11:19;22.48;;;9.82;;
17193;SDS011;8713;48.388;10.928;2024-01-10T02:12:50;19.83;;;10.40;;
17193;SDS011;8713;48.388;10.928;2024-01-10T02:14:19;19.05;;;9.90;;
17193;SDS011;8713;48.388;10.928;2024-01-10T02:15:49;17.98;;;9.77;;
17193;SDS011;8713;48.388;10.928;2024-01-10T02:17:19;20.75;;;10.60;;
17193;SDS011;8713;48.388;10.928;2024-01-10T02:18:49;18.38;;;9.63;;
17193;SDS011;8713;48.388;10.928;2024-01-10T02:20:19;23.10;;;10.50;;
17193;SDS011;8713;48.388;10.928;2024-01-10T02:21:50;18.33;;;9.90;;
17193;SDS011;8713;48.388;10.928;2024-01-10T02:23:20;18.30;;;9.82;;
17193;SDS011;8713;48.388;10.928;2024-01-10T02:24:52;18.33;;;9.50;;
17193;SDS011;8713;48.388;10.928;2024-01-10T02:26:22;21.13;;;10.27;;
17193;SDS011;8713;48.388;10.928;2024-01-10T02:27:52;19.42;;;10.23;;
17193;SDS011;8713;48.388;10.928;2024-01-10T02:29:22;20.35;;;10.48;;
17193;SDS011;8713;48.388;10.928;2024-01-10T02:30:53;20.42;;;10.63;;
17193;SDS011;8713;48.388;10.928;2024-01-10T02:32:23;18.02;;;10.18;;
17193;SDS011;8713;48.388;10.928;2024-01-10T02:33:53;21.35;;;10.55;;
17193;SDS011;8713;48.388;10.928;2024-01-10T02:35:23;20.73;;;11.18;;
17193;SDS011;8713;48.388;10.928;2024-01-10T02:36:53;20.02;;;11.05;;
17193;SDS011;8713;48.388;10.928;2024-01-10T02:38:22;22.95;;;11.45;;
17193;SDS011;8713;48.388;10.928;2024-01-10T02:39:53;20.30;;;10.85;;
17193;SDS011;8713;48.388;10.928;2024-01-10T02:41:22;18.80;;;10.18;;
17193;SDS011;8713;48.388;10.928;2024-01-10T02:42:51;20.10;;;10.60;;
17193;SDS011;8713;48.388;10.928;2024-01-10T02:44:21;18.83;;;8.63;;
17193;SDS011;8713;48.388;10.928;2024-01-10T02:45:52;17.23;;;9.20;;
17193;SDS011;8713;48.388;10.928;2024-01-10T02:47:21;17.73;;;9.95;;
17193;SDS011;8713;48.388;10.928;2024-01-10T02:48:51;16.38;;;9.05;;
17193;SDS011;8713;48.388;10.928;2024-01-10T02:50:20;17.00;;;8.02;;
17193;SDS011;8713;48.388;10.928;2024-01-10T02:51:50;18.13;;;9.15;;
17193;SDS011;8713;48.388;10.928;2024-01-10T02:53:20;17.83;;;8.98;;
17193;SDS011;8713;48.388;10.928;2024-01-10T02:54:49;22.42;;;10.07;;
17193;SDS011;8713;48.388;10.928;2024-01-10T02:56:19;16.20;;;8.30;;
17193;SDS011;8713;48.388;10.928;2024-01-10T02:57:48;19.80;;;10.35;;
17193;SDS011;8713;48.388;10.928;2024-01-10T02:59:18;22.73;;;11.23;;
17193;SDS011;8713;48.388;10.928;2024-01-10T03:00:47;22.20;;;11.60;;
17193;SDS011;8713;48.388;10.928;2024-01-10T03:02:17;24.85;;;12.30;;
17193;SDS011;8713;48.388;10.928;2024-01-10T03:03:46;24.55;;;13.20;;
17193;SDS011;8713;48.388;10.928;2024-01-10T03:05:16;21.95;;;12.48;;
17193;SDS011;8713;48.388;10.928;2024-01-10T03:06:45;31.13;;;15.52;;
17193;SDS011;8713;48.388;10.928;2024-01-10T03:08:14;28.17;;;14.57;;
17193;SDS011;8713;48.388;10.928;2024-01-10T03:09:44;31.87;;;16.17;;
17193;SDS011;8713;48.388;10.928;2024-01-10T03:11:14;30.95;;;14.48;;
17193;SDS011;8713;48.388;10.928;2024-01-10T03:12:43;25.52;;;13.18;;
17193;SDS011;8713;48.388;10.928;2024-01-10T03:14:13;25.20;;;12.18;;
17193;SDS011;8713;48.388;10.928;2024-01-10T03:15:42;21.58;;;11.75;;
17193;SDS011;8713;48.388;10.928;2024-01-10T03:17:12;23.67;;;10.63;;
17193;SDS011;8713;48.388;10.928;2024-01-10T03:18:41;25.27;;;13.80;;
17193;SDS011;8713;48.388;10.928;2024-01-10T03:20:11;27.38;;;14.10;;
17193;SDS011;8713;48.388;10.928;2024-01-10T03:21:41;23.65;;;12.45;;
17193;SDS011;8713;48.388;10.928;2024-01-10T03:23:10;23.95;;;12.82;;
17193;SDS011;8713;48.388;10.928;2024-01-10T03:24:40;23.60;;;12.30;;
17193;SDS011;8713;48.388;10.928;2024-01-10T03:26:10;21.97;;;11.33;;
17193;SDS011;8713;48.388;10.928;2024-01-10T03:27:39;21.65;;;11.10;;
17193;SDS011;8713;48.388;10.928;2024-01-10T03:29:09;22.45;;;11.85;;
17193;SDS011;8713;48.388;10.928;2024-01-10T03:30:38;22.75;;;12.93;;
17193;SDS011;8713;48.388;10.928;2024-01-10T03:32:08;23.95;;;12.25;;
17193;SDS011;8713;48.388;10.928;2024-01-10T03:33:38;22.55;;;11.20;;
17193;SDS011;8713;48.388;10.928;2024-01-10T03:35:08;25.05;;;13.02;;
17193;SDS011;8713;48.388;10.928;2024-01-10T03:36:38;25.05;;;13.05;;
17193;SDS011;8713;48.388;10.928;2024-01-10T03:38:08;27.65;;;13.45;;
17193;SDS011;8713;48.388;10.928;2024-01-10T03:39:37;25.58;;;12.80;;
17193;SDS011;8713;48.388;10.928;2024-01-10T03:41:07;20.15;;;11.25;;
17193;SDS011;8713;48.388;10.928;2024-01-10T03:42:37;16.95;;;9.82;;
17193;SDS011;8713;48.388;10.928;2024-01-10T03:44:07;20.05;;;10.73;;
17193;SDS011;8713;48.388;10.928;2024-01-10T03:45:36;17.67;;;9.55;;
17193;SDS011;8713;48.388;10.928;2024-01-10T03:47:06;19.20;;;11.00;;
17193;SDS011;8713;48.388;10.928;2024-01-10T03:48:35;18.75;;;10.43;;
17193;SDS011;8713;48.388;10.928;2024-01-10T03:50:06;16.38;;;9.30;;
17193;SDS011;8713;48.388;10.928;2024-01-10T03:51:36;17.50;;;10.18;;
17193;SDS011;8713;48.388;10.928;2024-01-10T03:53:07;20.52;;;10.40;;
17193;SDS011;8713;48.388;10.928;2024-01-10T03:54:36;21.63;;;10.23;;
17193;SDS011;8713;48.388;10.928;2024-01-10T03:56:08;24.10;;;12.75;;
17193;SDS011;8713;48.388;10.928;2024-01-10T03:57:38;22.08;;;11.85;;
17193;SDS011;8713;48.388;10.928;2024-01-10T03:59:11;24.20;;;13.48;;
17193;SDS011;8713;48.388;10.928;2024-01-10T04:00:40;18.65;;;10.30;;
17193;SDS011;8713;48.388;10.928;2024-01-10T04:02:10;26.40;;;13.77;;
17193;SDS011;8713;48.388;10.928;2024-01-10T04:03:40;29.77;;;15.27;;
17193;SDS011;8713;48.388;10.928;2024-01-10T04:05:13;19.85;;;10.93;;
17193;SDS011;8713;48.388;10.928;2024-01-10T04:06:43;21.73;;;12.38;;
17193;SDS011;8713;48.388;10.928;2024-01-10T04:08:13;22.85;;;12.27;;
17193;SDS011;8713;48.388;10.928;2024-01-10T04:09:43;17.10;;;10.05;;
17193;SDS011;8713;48.388;10.928;2024-01-10T04:11:13;16.73;;;8.88;;
17193;SDS011;8713;48.388;10.928;2024-01-10T04:12:43;18.90;;;10.13;;
17193;SDS011;8713;48.388;10.928;2024-01-10T04:14:13;21.23;;;10.27;;
17193;SDS011;8713;48.388;10.928;2024-01-10T04:15:42;18.67;;;10.50;;
17193;SDS011;8713;48.388;10.928;2024-01-10T04:17:12;22.55;;;11.65;;
17193;SDS011;8713;48.388;10.928;2024-01-10T04:18:42;18.48;;;10.70;;
17193;SDS011;8713;48.388;10.928;2024-01-10T04:20:12;24.90;;;13.02;;
17193;SDS011;8713;48.388;10.928;2024-01-10T04:21:41;18.30;;;9.90;;
17193;SDS011;8713;48.388;10.928;2024-01-10T04:23:11;24.85;;;13.07;;
17193;SDS011;8713;48.388;10.928;2024-01-10T04:24:41;23.35;;;12.00;;
17193;SDS011;8713;48.388;10.928;2024-01-10T04:26:10;22.95;;;11.93;;
17193;SDS011;8713;48.388;10.928;2024-01-10T04:27:40;23.98;;;12.68;;
17193;SDS011;8713;48.388;10.928;2024-01-10T04:29:10;18.85;;;11.07;;
17193;SDS011;8713;48.388;10.928;2024-01-10T04:30:39;21.45;;;11.70;;
17193;SDS011;8713;48.388;10.928;2024-01-10T04:32:09;19.60;;;11.25;;
17193;SDS011;8713;48.388;10.928;2024-01-10T04:33:38;25.10;;;13.13;;
17193;SDS011;8713;48.388;10.928;2024-01-10T04:35:08;22.05;;;10.82;;
17193;SDS011;8713;48.388;10.928;2024-01-10T04:36:38;19.88;;;10.65;;
17193;SDS011;8713;48.388;10.928;2024-01-10T04:38:07;19.20;;;9.88;;
17193;SDS011;8713;48.388;10.928;2024-01-10T04:39:37;19.80;;;10.32;;
17193;SDS011;8713;48.388;10.928;2024-01-10T04:41:07;19.10;;;10.20;;
17193;SDS011;8713;48.388;10.928;2024-01-10T04:42:36;20.40;;;10.73;;
17193;SDS011;8713;48.388;10.928;2024-01-10T04:44:06;17.40;;;10.10;;
17193;SDS011;8713;48.388;10.928;2024-01-10T04:45:36;21.58;;;10.35;;
17193;SDS011;8713;48.388;10.928;2024-01-10T04:47:05;22.50;;;12.40;;
17193;SDS011;8713;48.388;10.928;2024-01-10T04:48:36;21.48;;;11.55;;
17193;SDS011;8713;48.388;10.928;2024-01-10T04:50:06;21.75;;;11.52;;
17193;SDS011;8713;48.388;10.928;2024-01-10T04:51:36;25.27;;;12.70;;
17193;SDS011;8713;48.388;10.928;2024-01-10T04:53:06;23.92;;;13.23;;
17193;SDS011;8713;48.388;10.928;2024-01-10T04:54:35;20.55;;;10.73;;
17193;SDS011;8713;48.388;10.928;2024-01-10T04:56:05;24.95;;;12.90;;
17193;SDS011;8713;48.388;10.928;2024-01-10T04:57:35;22.48;;;11.73;;
17193;SDS011;8713;48.388;10.928;2024-01-10T04:59:05;24.08;;;12.50;;
17193;SDS011;8713;48.388;10.928;2024-01-10T05:00:34;18.65;;;9.82;;
17193;SDS011;8713;48.388;10.928;2024-01-10T05:02:04;19.13;;;9.88;;
17193;SDS011;8713;48.388;10.928;2024-01-10T05:03:33;21.63;;;11.88;;
17193;SDS011;8713;48.388;10.928;2024-01-10T05:05:03;18.60;;;9.90;;
17193;SDS011;8713;48.388;10.928;2024-01-10T05:06:33;14.25;;;8.40;;
17193;SDS011;8713;48.388;10.928;2024-01-10T05:08:03;18.92;;;9.80;;
17193;SDS011;8713;48.388;10.928;2024-01-10T05:09:33;18.98;;;10.73;;
17193;SDS011;8713;48.388;10.928;2024-01-10T05:11:02;18.63;;;10.60;;
17193;SDS011;8713;48.388;10.928;2024-01-10T05:12:32;15.82;;;9.30;;
17193;SDS011;8713;48.388;10.928;2024-01-10T05:14:02;21.20;;;10.43;;
17193;SDS011;8713;48.388;10.928;2024-01-10T05:15:32;17.10;;;9.20;;
17193;SDS011;8713;48.388;10.928;2024-01-10T05:17:01;19.10;;;10.35;;
17193;SDS011;8713;48.388;10.928;2024-01-10T05:18:32;21.85;;;10.85;;
17193;SDS011;8713;48.388;10.928;2024-01-10T05:20:01;23.75;;;12.45;;
17193;SDS011;8713;48.388;10.928;2024-01-10T05:21:32;23.15;;;11.38;;
17193;SDS011;8713;48.388;10.928;2024-01-10T05:23:02;22.08;;;9.82;;
17193;SDS011;8713;48.388;10.928;2024-01-10T05:24:32;18.88;;;10.13;;
17193;SDS011;8713;48.388;10.928;2024-01-10T05:26:01;21.45;;;11.15;;
17193;SDS011;8713;48.388;10.928;2024-01-10T05:27:31;21.10;;;10.27;;
17193;SDS011;8713;48.388;10.928;2024-01-10T05:29:01;17.98;;;10.05;;
17193;SDS011;8713;48.388;10.928;2024-01-10T05:30:30;21.38;;;10.63;;
17193;SDS011;8713;48.388;10.928;2024-01-10T05:32:00;24.30;;;12.43;;
17193;SDS011;8713;48.388;10.928;2024-01-10T05:33:30;22.63;;;11.93;;
17193;SDS011;8713;48.388;10.928;2024-01-10T05:35:00;18.92;;;9.73;;
17193;SDS011;8713;48.388;10.928;2024-01-10T05:36:29;21.23;;;10.45;;
17193;SDS011;8713;48.388;10.928;2024-01-10T05:37:59;20.10;;;10.38;;
17193;SDS011;8713;48.388;10.928;2024-01-10T05:39:28;18.13;;;9.40;;
17193;SDS011;8713;48.388;10.928;2024-01-10T05:40:58;21.58;;;10.90;;
17193;SDS011;8713;48.388;10.928;2024-01-10T05:42:28;27.05;;;13.43;;
17193;SDS011;8713;48.388;10.928;2024-01-10T05:43:58;23.33;;;10.50;;
17193;SDS011;8713;48.388;10.928;2024-01-10T05:45:27;20.58;;;11.60;;
17193;SDS011;8713;48.388;10.928;2024-01-10T05:46:57;19.77;;;10.50;;
17193;SDS011;8713;48.388;10.928;2024-01-10T05:48:28;21.95;;;11.57;;
17193;SDS011;8713;48.388;10.928;2024-01-10T05:49:57;22.88;;;11.60;;
17193;SDS011;8713;48.388;10.928;2024-01-10T05:51:27;19.52;;;10.63;;
17193;SDS011;8713;48.388;10.928;2024-01-10T05:52:56;18.33;;;9.98;;
17193;SDS011;8713;48.388;10.928;2024-01-10T05:54:26;21.42;;;11.40;;
17193;SDS011;8713;48.388;10.928;2024-01-10T05:55:56;19.52;;;10.65;;
17193;SDS011;8713;48.388;10.928;2024-01-10T05:57:25;21.80;;;9.48;;
17193;SDS011;8713;48.388;10.928;2024-01-10T05:58:55;21.48;;;10.07;;
17193;SDS011;8713;48.388;10.928;2024-01-10T06:00:24;21.15;;;10.18;;
17193;SDS011;8713;48.388;10.928;2024-01-10T06:01:54;17.92;;;8.98;;
17193;SDS011;8713;48.388;10.928;2024-01-10T06:03:23;18.60;;;9.73;;
17193;SDS011;8713;48.388;10.928;2024-01-10T06:04:53;19.67;;;9.70;;
17193;SDS011;8713;48.388;10.928;2024-01-10T06:06:23;18.10;;;9.98;;
17193;SDS011;8713;48.388;10.928;2024-01-10T06:07:53;19.80;;;9.93;;
17193;SDS011;8713;48.388;10.928;2024-01-10T06:09:22;24.50;;;12.00;;
17193;SDS011;8713;48.388;10.928;2024-01-10T06:10:52;22.67;;;11.98;;
17193;SDS011;8713;48.388;10.928;2024-01-10T06:12:21;16.88;;;8.95;;
17193;SDS011;8713;48.388;10.928;2024-01-10T06:13:51;16.85;;;9.40;;
17193;SDS011;8713;48.388;10.928;2024-01-10T06:15:20;23.25;;;11.85;;
17193;SDS011;8713;48.388;10.928;2024-01-10T06:16:50;18.75;;;10.25;;
17193;SDS011;8713;48.388;10.928;2024-01-10T06:18:19;18.67;;;10.55;;
17193;SDS011;8713;48.388;10.928;2024-01-10T06:19:49;20.98;;;10.48;;
17193;SDS011;8713;48.388;10.928;2024-01-10T06:21:19;19.08;;;9.90;;
17193;SDS011;8713;48.388;10.928;2024-01-10T06:22:49;26.10;;;12.93;;
17193;SDS011;8713;48.388;10.928;2024-01-10T06:24:19;20.27;;;10.60;;
17193;SDS011;8713;48.388;10.928;2024-01-10T06:25:49;19.30;;;10.30;;
17193;SDS011;8713;48.388;10.928;2024-01-10T06:27:19;18.40;;;9.55;;
17193;SDS011;8713;48.388;10.928;2024-01-10T06:28:48;20.73;;;10.15;;
17193;SDS011;8713;48.388;10.928;2024-01-10T06:30:17;15.45;;;9.27;;
17193;SDS011;8713;48.388;10.928;2024-01-10T06:31:47;20.27;;;10.50;;
17193;SDS011;8713;48.388;10.928;2024-01-10T06:33:17;20.63;;;11.10;;
17193;SDS011;8713;48.388;10.928;2024-01-10T06:34:48;19.70;;;9.88;;
17193;SDS011;8713;48.388;10.928;2024-01-10T06:36:18;19.98;;;10.02;;
17193;SDS011;8713;48.388;10.928;2024-01-10T06:37:48;18.05;;;9.32;;
17193;SDS011;8713;48.388;10.928;2024-01-10T06:39:17;16.42;;;8.38;;
17193;SDS011;8713;48.388;10.928;2024-01-10T06:40:48;20.17;;;10.27;;
17193;SDS011;8713;48.388;10.928;2024-01-10T06:42:19;19.00;;;10.43;;
17193;SDS011;8713;48.388;10.928;2024-01-10T06:43:50;16.17;;;8.88;;
17193;SDS011;8713;48.388;10.928;2024-01-10T06:45:21;16.20;;;9.32;;
17193;SDS011;8713;48.388;10.928;2024-01-10T06:46:51;19.30;;;10.25;;
17193;SDS011;8713;48.388;10.928;2024-01-10T06:48:20;20.95;;;10.98;;
17193;SDS011;8713;48.388;10.928;2024-01-10T06:49:50;20.57;;;10.97;;
17193;SDS011;8713;48.388;10.928;2024-01-10T06:51:19;22.27;;;11.68;;
17193;SDS011;8713;48.388;10.928;2024-01-10T06:52:49;18.95;;;10.18;;
17193;SDS011;8713;48.388;10.928;2024-01-10T06:54:18;22.48;;;11.75;;
17193;SDS011;8713;48.388;10.928;2024-01-10T06:55:48;18.13;;;9.98;;
17193;SDS011;8713;48.388;10.928;2024-01-10T06:57:18;19.77;;;9.63;;
17193;SDS011;8713;48.388;10.928;2024-01-10T06:58:47;22.85;;;10.82;;
17193;SDS011;8713;48.388;10.928;2024-01-10T07:00:17;18.90;;;9.65;;
17193;SDS011;8713;48.388;10.928;2024-01-10T07:01:50;23.52;;;11.13;;
17193;SDS011;8713;48.388;10.928;2024-01-10T07:03:21;23.95;;;12.13;;
17193;SDS011;8713;48.388;10.928;2024-01-10T07:04:51;19.40;;;9.82;;
17193;SDS011;8713;48.388;10.928;2024-01-10T07:06:21;22.75;;;11.55;;
17193;SDS011;8713;48.388;10.928;2024-01-10T07:07:51;22.98;;;11.65;;
17193;SDS011;8713;48.388;10.928;2024-01-10T07:09:20;24.35;;;12.70;;
17193;SDS011;8713;48.388;10.928;2024-01-10T07:10:50;22.83;;;10.80;;
17193;SDS011;8713;48.388;10.928;2024-01-10T07:12:19;22.80;;;12.07;;
17193;SDS011;8713;48.388;10.928;2024-01-10T07:13:49;18.08;;;9.73;;
17193;SDS011;8713;48.388;10.928;2024-01-10T07:15:19;21.30;;;11.40;;
17193;SDS011;8713;48.388;10.928;2024-01-10T07:16:49;26.45;;;12.48;;
17193;SDS011;8713;48.388;10.928;2024-01-10T07:18:18;21.80;;;11.93;;
17193;SDS011;8713;48.388;10.928;2024-01-10T07:19:48;22.48;;;11.98;;
17193;SDS011;8713;48.388;10.928;2024-01-10T07:21:18;23.98;;;12.32;;
17193;SDS011;8713;48.388;10.928;2024-01-10T07:22:48;20.50;;;10.80;;
17193;SDS011;8713;48.388;10.928;2024-01-10T07:24:18;18.40;;;9.90;;
17193;SDS011;8713;48.388;10.928;2024-01-10T07:25:48;18.27;;;9.65;;
17193;SDS011;8713;48.388;10.928;2024-01-10T07:27:19;23.08;;;11.57;;
17193;SDS011;8713;48.388;10.928;2024-01-10T07:28:48;22.27;;;11.05;;
17193;SDS011;8713;48.388;10.928;2024-01-10T07:30:18;22.10;;;12.00;;
17193;SDS011;8713;48.388;10.928;2024-01-10T07:31:47;26.77;;;12.55;;
17193;SDS011;8713;48.388;10.928;2024-01-10T07:33:17;19.00;;;10.30;;
17193;SDS011;8713;48.388;10.928;2024-01-10T07:34:47;26.38;;;12.00;;
17193;SDS011;8713;48.388;10.928;2024-01-10T07:36:17;19.30;;;10.23;;
17193;SDS011;8713;48.388;10.928;2024-01-10T07:37:47;20.38;;;11.15;;
17193;SDS011;8713;48.388;10.928;2024-01-10T07:39:17;19.30;;;10.07;;
17193;SDS011;8713;48.388;10.928;2024-01-10T07:40:40;19.70;;;10.60;;
17193;SDS011;8713;48.388;10.928;2024-01-10T07:41:49;20.45;;;10.93;;
17193;SDS011;8713;48.388;10.928;2024-01-10T07:42:59;20.48;;;10.30;;
17193;SDS011;8713;48.388;10.928;2024-01-10T07:44:08;16.73;;;9.00;;
17193;SDS011;8713;48.388;10.928;2024-01-10T07:45:18;19.42;;;9.63;;
17193;SDS011;8713;48.388;10.928;2024-01-10T07:46:28;17.20;;;8.73;;
17193;SDS011;8713;48.388;10.928;2024-01-10T07:47:37;17.15;;;9.55;;
17193;SDS011;8713;48.388;10.928;2024-01-10T07:48:47;19.70;;;10.55;;
17193;SDS011;8713;48.388;10.928;2024-01-10T07:49:57;17.10;;;10.07;;
17193;SDS011;8713;48.388;10.928;2024-01-10T07:51:08;23.15;;;12.02;;
17193;SDS011;8713;48.388;10.928;2024-01-10T07:52:18;25.50;;;13.45;;
17193;SDS011;8713;48.388;10.928;2024-01-10T07:53:27;24.58;;;11.88;;
17193;SDS011;8713;48.388;10.928;2024-01-10T07:54:37;20.40;;;11.23;;
17193;SDS011;8713;48.388;10.928;2024-01-10T07:55:46;24.17;;;11.50;;
17193;SDS011;8713;48.388;10.928;2024-01-10T07:57:11;20.30;;;10.85;;
17193;SDS011;8713;48.388;10.928;2024-01-10T07:58:39;22.92;;;12.30;;
17193;SDS011;8713;48.388;10.928;2024-01-10T08:00:04;22.23;;;11.05;;
17193;SDS011;8713;48.388;10.928;2024-01-10T08:01:36;20.85;;;11.00;;
17193;SDS011;8713;48.388;10.928;2024-01-10T08:03:04;18.10;;;9.35;;
17193;SDS011;8713;48.388;10.928;2024-01-10T08:04:32;16.65;;;9.82;;
17193;SDS011;8713;48.388;10.928;2024-01-10T08:06:01;17.52;;;9.15;;
17193;SDS011;8713;48.388;10.928;2024-01-10T08:07:31;17.80;;;9.43;;
17193;SDS011;8713;48.388;10.928;2024-01-10T08:09:04;18.55;;;10.30;;
17193;SDS011;8713;48.388;10.928;2024-01-10T08:10:32;19.52;;;9.98;;
17193;SDS011;8713;48.388;10.928;2024-01-10T08:12:00;20.17;;;10.43;;
17193;SDS011;8713;48.388;10.928;2024-01-10T08:13:29;23.52;;;12.00;;
17193;SDS011;8713;48.388;10.928;2024-01-10T08:14:58;19.13;;;10.20;;
17193;SDS011;8713;48.388;10.928;2024-01-10T08:16:26;16.48;;;10.00;;
17193;SDS011;8713;48.388;10.928;2024-01-10T08:17:35;20.88;;;10.85;;
17193;SDS011;8713;48.388;10.928;2024-01-10T08:19:05;21.70;;;10.65;;
17193;SDS011;8713;48.388;10.928;2024-01-10T08:20:14;20.90;;;10.02;;
17193;SDS011;8713;48.388;10.928;2024-01-10T08:21:28;21.23;;;10.93;;
17193;SDS011;8713;48.388;10.928;2024-01-10T08:22:56;25.67;;;11.48;;
17193;SDS011;8713;48.388;10.928;2024-01-10T08:24:25;16.95;;;9.05;;
17193;SDS011;8713;48.388;10.928;2024-01-10T08:25:54;16.48;;;8.73;;
17193;SDS011;8713;48.388;10.928;2024-01-10T08:27:10;21.95;;;11.25;;
17193;SDS011;8713;48.388;10.928;2024-01-10T08:28:38;22.02;;;12.00;;
17193;SDS011;8713;48.388;10.928;2024-01-10T08:29:47;21.90;;;10.38;;
17193;SDS011;8713;48.388;10.928;2024-01-10T08:31:18;20.10;;;9.88;;
17193;SDS011;8713;48.388;10.928;2024-01-10T08:32:47;24.98;;;11.68;;
17193;SDS011;8713;48.388;10.928;2024-01-10T08:33:57;24.52;;;11.90;;
17193;SDS011;8713;48.388;10.928;2024-01-10T08:35:25;25.42;;;11.55;;
17193;SDS011;8713;48.388;10.928;2024-01-10T08:36:53;21.30;;;11.80;;
17193;SDS011;8713;48.388;10.928;2024-01-10T08:38:22;19.73;;;10.48;;
17193;SDS011;8713;48.388;10.928;2024-01-10T08:39:31;24.70;;;11.48;;
17193;SDS011;8713;48.388;10.928;2024-01-10T08:41:00;23.13;;;10.87;;